Time,TemperatureF,DewpointF,PressureIn,WindDirection,WindDirectionDegrees,WindSpeedMPH,WindSpeedGustMPH,Humidity,HourlyPrecipIn,Conditions,Clouds,dailyrainin,SoftwareType,DateUTC
2013-06-10 00:04:00,71.8,71.2,29.79,SE,135,0.0,-999.0,98,-99.99,,,0.00,Acu-Link.com,2013-06-10 04:04:00,
2013-06-10 00:20:00,71.8,71.2,29.79,ENE,67,0.0,-999.0,98,-99.99,,,0.00,Acu-Link.com,2013-06-10 04:20:00,
2013-06-10 00:35:00,71.8,71.2,29.79,NNW,337,0.0,-999.0,98,-99.99,,,0.00,Acu-Link.com,2013-06-10 04:35:00,
2013-06-10 00:51:00,71.8,71.2,29.79,NW,315,2.2,-999.0,98,-99.99,,,0.00,Acu-Link.com,2013-06-10 04:51:00,
2013-06-10 01:07:00,71.8,71.2,29.79,South,180,3.2,-999.0,98,-99.99,,,0.00,Acu-Link.com,2013-06-10 05:07:00,
2013-06-10 01:23:00,71.6,71.0,29.78,ENE,67,2.2,-999.0,98,-99.99,,,0.00,Acu-Link.com,2013-06-10 05:23:00,
2013-06-10 01:40:00,71.6,71.0,29.79,SSW,202,0.0,-999.0,98,-99.99,,,0.00,Acu-Link.com,2013-06-10 05:40:00,
2013-06-10 01:55:00,71.4,70.8,29.79,NE,45,2.2,-999.0,98,-99.99,,,0.00,Acu-Link.com,2013-06-10 05:55:00,
2013-06-10 02:10:00,71.4,70.8,29.78,NE,45,1.7,-999.0,98,-99.99,,,0.00,Acu-Link.com,2013-06-10 06:10:00,
2013-06-10 02:27:00,71.4,70.8,29.77,SE,135,2.2,-999.0,98,-99.99,,,0.00,Acu-Link.com,2013-06-10 06:27:00,
2013-06-10 02:42:00,71.2,70.6,29.77,North,0,1.1,-999.0,98,-99.99,,,0.00,Acu-Link.com,2013-06-10 06:42:00,
2013-06-10 02:58:00,71.2,70.6,29.76,ENE,67,1.7,-999.0,98,-99.99,,,0.00,Acu-Link.com,2013-06-10 06:58:00,
2013-06-10 03:13:00,71.2,70.6,29.75,East,90,1.1,-999.0,98,-99.99,,,0.00,Acu-Link.com,2013-06-10 07:13:00,
2013-06-10 03:28:00,71.1,70.5,29.75,NE,45,1.7,-999.0,98,-99.99,,,0.00,Acu-Link.com,2013-06-10 07:28:00,
2013-06-10 03:43:00,70.9,70.3,29.75,West,270,1.1,-999.0,98,-99.99,,,0.00,Acu-Link.com,2013-06-10 07:43:00,
2013-06-10 03:59:00,70.7,70.1,29.74,SE,135,0.0,-999.0,98,-99.99,,,0.00,Acu-Link.com,2013-06-10 07:59:00,
2013-06-10 04:15:00,70.5,69.9,29.73,WNW,292,1.7,-999.0,98,-99.99,,,0.00,Acu-Link.com,2013-06-10 08:15:00,
2013-06-10 04:30:00,70.7,70.1,29.74,South,180,1.1,-999.0,98,-99.99,,,0.00,Acu-Link.com,2013-06-10 08:30:00,
2013-06-10 04:46:00,70.7,70.1,29.74,ENE,67,1.7,-999.0,98,-99.99,,,0.00,Acu-Link.com,2013-06-10 08:46:00,
2013-06-10 05:02:00,70.5,69.9,29.73,ESE,112,3.2,-999.0,98,-99.99,,,0.00,Acu-Link.com,2013-06-10 09:02:00,
2013-06-10 05:17:00,70.5,69.9,29.74,North,0,1.7,-999.0,98,-99.99,,,0.00,Acu-Link.com,2013-06-10 09:17:00,
2013-06-10 05:33:00,70.3,69.7,29.75,ESE,112,3.2,-999.0,98,-99.99,,,0.00,Acu-Link.com,2013-06-10 09:33:00,
2013-06-10 05:48:00,70.3,69.7,29.75,WSW,247,1.7,-999.0,98,-99.99,,,0.00,Acu-Link.com,2013-06-10 09:48:00,
2013-06-10 06:04:00,70.3,69.7,29.74,ESE,112,1.1,-999.0,98,-99.99,,,0.00,Acu-Link.com,2013-06-10 10:04:00,
2013-06-10 06:19:00,70.2,69.6,29.75,ENE,67,0.0,-999.0,98,-99.99,,,0.02,Acu-Link.com,2013-06-10 10:19:00,
2013-06-10 06:35:00,70.0,69.4,29.74,ESE,112,0.0,-999.0,98,-99.99,,,0.04,Acu-Link.com,2013-06-10 10:35:00,
2013-06-10 07:06:00,69.6,69.0,29.75,NNE,22,1.7,-999.0,98,-99.99,,,0.15,Acu-Link.com,2013-06-10 11:06:00,
2013-06-10 07:22:00,69.6,69.0,29.75,NNE,22,1.7,-999.0,98,-99.99,,,0.17,Acu-Link.com,2013-06-10 11:22:00,
2013-06-10 07:38:00,69.6,69.0,29.76,West,270,2.7,-999.0,98,-99.99,,,0.18,Acu-Link.com,2013-06-10 11:38:00,
2013-06-10 07:54:00,69.4,68.8,29.76,NNE,22,2.2,-999.0,98,-99.99,,,0.31,Acu-Link.com,2013-06-10 11:54:00,
2013-06-10 08:09:00,68.9,68.3,29.76,ESE,112,2.2,-999.0,98,-99.99,,,0.32,Acu-Link.com,2013-06-10 12:09:00,
2013-06-10 08:24:00,68.9,68.3,29.77,SSW,202,0.0,-999.0,98,-99.99,,,0.32,Acu-Link.com,2013-06-10 12:24:00,
2013-06-10 08:40:00,69.4,68.8,29.78,South,180,1.7,-999.0,98,-99.99,,,0.35,Acu-Link.com,2013-06-10 12:40:00,
2013-06-10 08:55:00,69.8,69.2,29.78,West,270,0.0,-999.0,98,-99.99,,,0.35,Acu-Link.com,2013-06-10 12:55:00,
2013-06-10 09:10:00,70.3,69.7,29.78,East,90,2.2,-999.0,98,-99.99,,,0.35,Acu-Link.com,2013-06-10 13:10:00,
2013-06-10 09:25:00,70.2,69.6,29.79,NNW,337,1.7,-999.0,98,-99.99,,,0.35,Acu-Link.com,2013-06-10 13:25:00,
2013-06-10 09:41:00,70.9,69.4,29.79,NE,45,1.7,-999.0,95,-99.99,,,0.35,Acu-Link.com,2013-06-10 13:41:00,
2013-06-10 09:56:00,72.3,70.2,29.79,ESE,112,1.7,-999.0,93,-99.99,,,0.35,Acu-Link.com,2013-06-10 13:56:00,
2013-06-10 10:11:00,72.3,69.8,29.79,ESE,112,0.0,-999.0,92,-99.99,,,0.35,Acu-Link.com,2013-06-10 14:11:00,
2013-06-10 10:26:00,71.6,69.5,29.78,SW,225,1.7,-999.0,93,-99.99,,,0.35,Acu-Link.com,2013-06-10 14:26:00,
2013-06-10 10:41:00,72.5,69.7,29.79,East,90,1.7,-999.0,91,-99.99,,,0.35,Acu-Link.com,2013-06-10 14:41:00,
2013-06-10 10:57:00,71.4,68.9,29.79,NNE,22,0.0,-999.0,92,-99.99,,,0.35,Acu-Link.com,2013-06-10 14:57:00,
2013-06-10 11:12:00,71.6,68.2,29.79,SSW,202,1.7,-999.0,89,-99.99,,,0.35,Acu-Link.com,2013-06-10 15:12:00,
2013-06-10 11:27:00,74.8,70.0,29.79,South,180,2.2,-999.0,85,-99.99,,,0.35,Acu-Link.com,2013-06-10 15:27:00,
2013-06-10 11:43:00,77.0,70.3,29.80,ESE,112,2.2,-999.0,80,-99.99,,,0.35,Acu-Link.com,2013-06-10 15:43:00,
2013-06-10 11:58:00,77.7,71.4,29.80,NE,45,1.7,-999.0,81,-99.99,,,0.35,Acu-Link.com,2013-06-10 15:58:00,
2013-06-10 12:13:00,77.2,70.2,29.80,East,90,2.2,-999.0,79,-99.99,,,0.35,Acu-Link.com,2013-06-10 16:13:00,
2013-06-10 12:28:00,78.6,70.4,29.79,ESE,112,3.7,-999.0,76,-99.99,,,0.35,Acu-Link.com,2013-06-10 16:28:00,
2013-06-10 12:44:00,78.8,69.8,29.79,NE,45,2.7,-999.0,74,-99.99,,,0.35,Acu-Link.com,2013-06-10 16:44:00,
2013-06-10 12:59:00,79.7,70.3,29.80,ESE,112,1.1,-999.0,73,-99.99,,,0.35,Acu-Link.com,2013-06-10 16:59:00,
2013-06-10 13:14:00,81.0,71.9,29.80,WSW,247,2.2,-999.0,74,-99.99,,,0.35,Acu-Link.com,2013-06-10 17:14:00,
2013-06-10 13:29:00,81.1,69.9,29.80,North,0,2.7,-999.0,69,-99.99,,,0.35,Acu-Link.com,2013-06-10 17:29:00,
2013-06-10 13:44:00,82.0,70.8,29.79,ESE,112,2.7,-999.0,69,-99.99,,,0.35,Acu-Link.com,2013-06-10 17:44:00,
2013-06-10 14:00:00,82.2,70.1,29.78,ENE,67,2.7,-999.0,67,-99.99,,,0.35,Acu-Link.com,2013-06-10 18:00:00,
2013-06-10 14:15:00,82.4,70.3,29.78,SE,135,2.7,-999.0,67,-99.99,,,0.35,Acu-Link.com,2013-06-10 18:15:00,
2013-06-10 14:30:00,83.1,69.6,29.78,NNW,337,2.7,-999.0,64,-99.99,,,0.35,Acu-Link.com,2013-06-10 18:30:00,
2013-06-10 14:46:00,83.5,69.1,29.77,East,90,3.7,-999.0,62,-99.99,,,0.35,Acu-Link.com,2013-06-10 18:46:00,
2013-06-10 15:16:00,84.6,70.1,29.76,SW,225,1.7,-999.0,62,-99.99,,,0.35,Acu-Link.com,2013-06-10 19:16:00,
2013-06-10 15:31:00,84.0,69.1,29.76,SE,135,2.2,-999.0,61,-99.99,,,0.35,Acu-Link.com,2013-06-10 19:31:00,
2013-06-10 15:47:00,84.4,69.0,29.76,South,180,2.7,-999.0,60,-99.99,,,0.35,Acu-Link.com,2013-06-10 19:47:00,
2013-06-10 16:02:00,83.7,67.3,29.74,WSW,247,2.7,-999.0,58,-99.99,,,0.35,Acu-Link.com,2013-06-10 20:02:00,
2013-06-10 16:17:00,85.1,68.1,29.73,ENE,67,4.7,-999.0,57,-99.99,,,0.35,Acu-Link.com,2013-06-10 20:17:00,
2013-06-10 16:32:00,86.4,68.3,29.73,SSE,157,3.7,-999.0,55,-99.99,,,0.35,Acu-Link.com,2013-06-10 20:32:00,
2013-06-10 16:48:00,86.7,68.0,29.72,East,90,3.2,-999.0,54,-99.99,,,0.35,Acu-Link.com,2013-06-10 20:48:00,
2013-06-10 17:03:00,85.6,68.6,29.73,ESE,112,1.7,-999.0,57,-99.99,,,0.35,Acu-Link.com,2013-06-10 21:03:00,
2013-06-10 17:18:00,85.3,66.7,29.73,SE,135,4.2,-999.0,54,-99.99,,,0.35,Acu-Link.com,2013-06-10 21:18:00,
2013-06-10 17:34:00,85.3,66.2,29.72,East,90,1.7,-999.0,53,-99.99,,,0.35,Acu-Link.com,2013-06-10 21:34:00,
2013-06-10 17:49:00,85.3,66.2,29.73,West,270,2.7,-999.0,53,-99.99,,,0.35,Acu-Link.com,2013-06-10 21:49:00,
2013-06-10 18:04:00,84.7,65.6,29.72,ENE,67,1.7,-999.0,53,-99.99,,,0.35,Acu-Link.com,2013-06-10 22:04:00,
2013-06-10 18:19:00,84.6,66.1,29.71,NNE,22,2.2,-999.0,54,-99.99,,,0.35,Acu-Link.com,2013-06-10 22:19:00,
2013-06-10 18:34:00,83.1,65.8,29.72,East,90,0.0,-999.0,56,-99.99,,,0.35,Acu-Link.com,2013-06-10 22:34:00,
2013-06-10 18:50:00,82.6,66.8,29.72,WNW,292,1.7,-999.0,59,-99.99,,,0.35,Acu-Link.com,2013-06-10 22:50:00,
2013-06-10 19:05:00,81.9,66.6,29.72,South,180,0.0,-999.0,60,-99.99,,,0.35,Acu-Link.com,2013-06-10 23:05:00,
2013-06-10 19:20:00,81.1,67.3,29.71,WNW,292,0.0,-999.0,63,-99.99,,,0.35,Acu-Link.com,2013-06-10 23:20:00,
2013-06-10 19:36:00,79.9,67.9,29.72,WNW,292,0.0,-999.0,67,-99.99,,,0.35,Acu-Link.com,2013-06-10 23:36:00,
2013-06-10 19:51:00,79.3,70.7,29.73,NNW,337,0.0,-999.0,75,-99.99,,,0.35,Acu-Link.com,2013-06-10 23:51:00,
2013-06-10 20:06:00,76.8,68.6,29.72,WSW,247,0.0,-999.0,76,-99.99,,,0.35,Acu-Link.com,2013-06-11 00:06:00,
2013-06-10 20:22:00,75.2,69.7,29.71,South,180,0.0,-999.0,83,-99.99,,,0.37,Acu-Link.com,2013-06-11 00:22:00,
2013-06-10 20:37:00,73.4,69.3,29.70,SE,135,0.0,-999.0,87,-99.99,,,0.39,Acu-Link.com,2013-06-11 00:37:00,
2013-06-10 20:52:00,72.3,69.2,29.71,SW,225,0.0,-999.0,90,-99.99,,,0.39,Acu-Link.com,2013-06-11 00:52:00,
2013-06-10 21:07:00,71.8,69.7,29.71,SW,225,0.0,-999.0,93,-99.99,,,0.39,Acu-Link.com,2013-06-11 01:07:00,
2013-06-10 21:22:00,71.2,69.1,29.71,SW,225,0.0,-999.0,93,-99.99,,,0.39,Acu-Link.com,2013-06-11 01:22:00,
2013-06-10 21:38:00,70.9,69.1,29.72,SW,225,0.0,-999.0,94,-99.99,,,0.39,Acu-Link.com,2013-06-11 01:38:00,
2013-06-10 21:53:00,70.7,70.1,29.73,West,270,0.0,-999.0,98,-99.99,,,0.39,Acu-Link.com,2013-06-11 01:53:00,
2013-06-10 22:08:00,70.5,69.9,29.73,SW,225,0.0,-999.0,98,-99.99,,,0.39,Acu-Link.com,2013-06-11 02:08:00,
2013-06-10 22:24:00,70.3,69.7,29.73,NNW,337,0.0,-999.0,98,-99.99,,,0.39,Acu-Link.com,2013-06-11 02:24:00,
2013-06-10 22:39:00,70.2,69.6,29.74,NNW,337,0.0,-999.0,98,-99.99,,,0.39,Acu-Link.com,2013-06-11 02:39:00,
2013-06-10 22:54:00,70.2,69.6,29.75,NNW,337,0.0,-999.0,98,-99.99,,,0.39,Acu-Link.com,2013-06-11 02:54:00,
2013-06-10 23:10:00,70.3,69.7,29.74,NW,315,0.0,-999.0,98,-99.99,,,0.39,Acu-Link.com,2013-06-11 03:10:00,
2013-06-10 23:25:00,70.3,69.7,29.73,NW,315,0.0,-999.0,98,-99.99,,,0.39,Acu-Link.com,2013-06-11 03:25:00,
2013-06-10 23:40:00,70.3,69.7,29.75,NNW,337,0.0,-999.0,98,-99.99,,,0.39,Acu-Link.com,2013-06-11 03:40:00,
2013-06-10 23:55:00,70.5,69.9,29.77,SSW,202,0.0,-999.0,98,-99.99,,,0.41,Acu-Link.com,2013-06-11 03:55:00,